sensor_id;sensor_type;location;lat;lon;timestamp;pressure;altitude;pressure_sealevel;temperature;humidity
2178;BME280;1095;50.992;6.798;2023-07-13T00:00:22;100720.91;;;17.08;70.95
2178;BME280;1095;50.992;6.798;2023-07-13T00:02:49;100722.53;;;17.09;70.98
2178;BME280;1095;50.992;6.798;2023-07-13T00:05:19;100720.06;;;17.07;70.77
2178;BME280;1095;50.992;6.798;2023-07-13T00:07:46;100729.84;;;17.07;71.23
2178;BME280;1095;50.992;6.798;2023-07-13T00:10:18;100724.31;;;17.02;71.35
2178;BME280;1095;50.992;6.798;2023-07-13T00:12:47;100723.16;;;17.11;71.00
2178;BME280;1095;50.992;6.798;2023-07-13T00:15:20;100729.44;;;17.10;71.29
2178;BME280;1095;50.992;6.798;2023-07-13T00:17:48;100733.72;;;17.11;71.23
2178;BME280;1095;50.992;6.798;2023-07-13T00:20:15;100728.44;;;17.11;71.27
2178;BME280;1095;50.992;6.798;2023-07-13T00:22:42;100742.66;;;17.10;71.48
2178;BME280;1095;50.992;6.798;2023-07-13T00:25:10;100743.25;;;17.05;71.77
2178;BME280;1095;50.992;6.798;2023-07-13T00:27:39;100725.75;;;16.98;72.07
2178;BME280;1095;50.992;6.798;2023-07-13T00:30:09;100736.31;;;16.98;71.98
2178;BME280;1095;50.992;6.798;2023-07-13T00:32:36;100739.34;;;16.95;72.40
2178;BME280;1095;50.992;6.798;2023-07-13T00:35:04;100741.13;;;16.87;72.42
2178;BME280;1095;50.992;6.798;2023-07-13T00:37:31;100737.88;;;16.85;72.54
2178;BME280;1095;50.992;6.798;2023-07-13T00:39:58;100729.47;;;16.75;72.86
2178;BME280;1095;50.992;6.798;2023-07-13T00:42:25;100738.03;;;16.77;72.74
2178;BME280;1095;50.992;6.798;2023-07-13T00:45:04;100735.94;;;16.73;72.97
2178;BME280;1095;50.992;6.798;2023-07-13T00:47:30;100732.88;;;16.69;73.07
2178;BME280;1095;50.992;6.798;2023-07-13T00:49:57;100728.78;;;16.67;73.34
2178;BME280;1095;50.992;6.798;2023-07-13T00:52:27;100738.34;;;16.68;73.46
2178;BME280;1095;50.992;6.798;2023-07-13T00:54:54;100733.63;;;16.63;73.47
2178;BME280;1095;50.992;6.798;2023-07-13T00:57:23;100727.97;;;16.66;73.50
2178;BME280;1095;50.992;6.798;2023-07-13T00:59:54;100731.63;;;16.65;73.75
2178;BME280;1095;50.992;6.798;2023-07-13T01:02:23;100730.72;;;16.58;73.90
2178;BME280;1095;50.992;6.798;2023-07-13T01:04:52;100727.09;;;16.59;73.86
2178;BME280;1095;50.992;6.798;2023-07-13T01:07:18;100722.59;;;16.53;74.16
2178;BME280;1095;50.992;6.798;2023-07-13T01:09:45;100724.56;;;16.44;74.47
2178;BME280;1095;50.992;6.798;2023-07-13T01:12:12;100719.47;;;16.43;74.67
2178;BME280;1095;50.992;6.798;2023-07-13T01:14:39;100719.84;;;16.40;74.78
2178;BME280;1095;50.992;6.798;2023-07-13T01:17:09;100726.91;;;16.33;74.98
2178;BME280;1095;50.992;6.798;2023-07-13T01:19:41;100726.72;;;16.34;75.17
2178;BME280;1095;50.992;6.798;2023-07-13T01:22:12;100727.28;;;16.30;75.18
2178;BME280;1095;50.992;6.798;2023-07-13T01:24:41;100724.59;;;16.23;75.40
2178;BME280;1095;50.992;6.798;2023-07-13T01:27:09;100724.16;;;16.19;75.62
2178;BME280;1095;50.992;6.798;2023-07-13T01:29:38;100725.53;;;16.15;75.76
2178;BME280;1095;50.992;6.798;2023-07-13T01:32:08;100733.81;;;16.12;76.04
2178;BME280;1095;50.992;6.798;2023-07-13T01:34:35;100737.25;;;16.06;76.48
2178;BME280;1095;50.992;6.798;2023-07-13T01:37:02;100729.34;;;16.06;76.36
2178;BME280;1095;50.992;6.798;2023-07-13T01:39:30;100724.00;;;16.00;76.48
2178;BME280;1095;50.992;6.798;2023-07-13T01:41:58;100732.34;;;16.03;76.48
2178;BME280;1095;50.992;6.798;2023-07-13T01:44:25;100736.63;;;16.04;76.59
2178;BME280;1095;50.992;6.798;2023-07-13T01:46:52;100734.81;;;16.05;76.71
2178;BME280;1095;50.992;6.798;2023-07-13T01:49:19;100745.16;;;16.06;76.97
2178;BME280;1095;50.992;6.798;2023-07-13T01:51:45;100737.25;;;16.06;76.88
2178;BME280;1095;50.992;6.798;2023-07-13T01:54:12;100734.59;;;16.06;77.31
2178;BME280;1095;50.992;6.798;2023-07-13T01:56:40;100729.13;;;16.08;77.41
2178;BME280;1095;50.992;6.798;2023-07-13T01:59:07;100728.28;;;16.07;77.47
2178;BME280;1095;50.992;6.798;2023-07-13T02:01:34;100724.25;;;16.05;77.56
2178;BME280;1095;50.992;6.798;2023-07-13T02:04:06;100732.47;;;15.95;78.03
2178;BME280;1095;50.992;6.798;2023-07-13T02:06:36;100734.91;;;15.97;78.01
2178;BME280;1095;50.992;6.798;2023-07-13T02:09:02;100735.47;;;15.92;78.04
2178;BME280;1095;50.992;6.798;2023-07-13T02:11:29;100736.59;;;15.83;78.17
2178;BME280;1095;50.992;6.798;2023-07-13T02:14:00;100745.53;;;15.82;78.37
2178;BME280;1095;50.992;6.798;2023-07-13T02:16:27;100745.91;;;15.79;78.65
2178;BME280;1095;50.992;6.798;2023-07-13T02:18:54;100744.19;;;15.71;78.95
2178;BME280;1095;50.992;6.798;2023-07-13T02:21:21;100743.75;;;15.68;78.98
2178;BME280;1095;50.992;6.798;2023-07-13T02:23:47;100751.03;;;15.66;78.97
2178;BME280;1095;50.992;6.798;2023-07-13T02:26:14;100747.38;;;15.67;79.08
2178;BME280;1095;50.992;6.798;2023-07-13T02:28:41;100736.81;;;15.67;78.98
2178;BME280;1095;50.992;6.798;2023-07-13T02:31:11;100740.09;;;15.69;78.70
2178;BME280;1095;50.992;6.798;2023-07-13T02:33:39;100736.00;;;16.02;78.63
2178;BME280;1095;50.992;6.798;2023-07-13T02:36:06;100726.28;;;16.09;77.94
2178;BME280;1095;50.992;6.798;2023-07-13T02:38:33;100729.00;;;16.16;77.13
2178;BME280;1095;50.992;6.798;2023-07-13T02:41:01;100730.44;;;16.18;76.86
2178;BME280;1095;50.992;6.798;2023-07-13T02:43:27;100741.06;;;16.25;77.09
2178;BME280;1095;50.992;6.798;2023-07-13T02:45:55;100743.00;;;16.16;76.63
2178;BME280;1095;50.992;6.798;2023-07-13T02:48:23;100744.19;;;16.14;76.77
2178;BME280;1095;50.992;6.798;2023-07-13T02:50:49;100735.38;;;16.00;76.95
2178;BME280;1095;50.992;6.798;2023-07-13T02:53:16;100746.56;;;16.02;77.00
2178;BME280;1095;50.992;6.798;2023-07-13T02:55:46;100739.38;;;15.96;77.54
2178;BME280;1095;50.992;6.798;2023-07-13T02:58:41;100739.13;;;15.91;77.50
2178;BME280;1095;50.992;6.798;2023-07-13T03:01:11;100753.31;;;15.90;77.43
2178;BME280;1095;50.992;6.798;2023-07-13T03:03:39;100746.59;;;15.87;77.55
2178;BME280;1095;50.992;6.798;2023-07-13T03:06:06;100748.41;;;15.87;77.64
2178;BME280;1095;50.992;6.798;2023-07-13T03:08:36;100744.81;;;15.73;77.66
2178;BME280;1095;50.992;6.798;2023-07-13T03:11:05;100758.28;;;15.78;77.87
2178;BME280;1095;50.992;6.798;2023-07-13T03:13:32;100775.09;;;15.77;77.96
2178;BME280;1095;50.992;6.798;2023-07-13T03:15:59;100767.38;;;15.76;78.16
2178;BME280;1095;50.992;6.798;2023-07-13T03:18:27;100772.03;;;15.74;78.06
2178;BME280;1095;50.992;6.798;2023-07-13T03:20:55;100764.28;;;15.72;78.16
2178;BME280;1095;50.992;6.798;2023-07-13T03:23:22;100773.84;;;15.73;77.95
2178;BME280;1095;50.992;6.798;2023-07-13T03:25:50;100783.94;;;15.70;78.22
2178;BME280;1095;50.992;6.798;2023-07-13T03:28:16;100774.66;;;15.74;78.21
2178;BME280;1095;50.992;6.798;2023-07-13T03:30:43;100787.94;;;15.66;78.44
2178;BME280;1095;50.992;6.798;2023-07-13T03:33:10;100790.41;;;15.67;78.57
2178;BME280;1095;50.992;6.798;2023-07-13T03:35:40;100774.75;;;15.66;78.46
2178;BME280;1095;50.992;6.798;2023-07-13T03:38:08;100780.59;;;15.61;78.61
2178;BME280;1095;50.992;6.798;2023-07-13T03:40:34;100788.34;;;15.48;79.52
2178;BME280;1095;50.992;6.798;2023-07-13T03:43:01;100785.44;;;15.43;79.64
2178;BME280;1095;50.992;6.798;2023-07-13T03:45:28;100793.53;;;15.26;80.28
2178;BME280;1095;50.992;6.798;2023-07-13T03:47:54;100801.59;;;15.25;80.50
2178;BME280;1095;50.992;6.798;2023-07-13T03:50:21;100795.53;;;15.24;80.55
2178;BME280;1095;50.992;6.798;2023-07-13T03:52:48;100801.06;;;15.15;80.70
2178;BME280;1095;50.992;6.798;2023-07-13T03:55:17;100805.88;;;15.26;81.04
2178;BME280;1095;50.992;6.798;2023-07-13T03:57:45;100803.53;;;15.31;81.00
2178;BME280;1095;50.992;6.798;2023-07-13T04:00:13;100809.25;;;15.35;81.00
2178;BME280;1095;50.992;6.798;2023-07-13T04:02:41;100808.34;;;15.42;80.78
2178;BME280;1095;50.992;6.798;2023-07-13T04:05:10;100815.63;;;15.55;80.47
2178;BME280;1095;50.992;6.798;2023-07-13T04:07:37;100818.13;;;15.78;80.15
2178;BME280;1095;50.992;6.798;2023-07-13T04:10:04;100812.16;;;16.26;78.68
2178;BME280;1095;50.992;6.798;2023-07-13T04:12:33;100803.47;;;16.75;76.97
2178;BME280;1095;50.992;6.798;2023-07-13T04:14:59;100793.06;;;17.36;75.05
2178;BME280;1095;50.992;6.798;2023-07-13T04:17:26;100790.72;;;17.61;73.62
2178;BME280;1095;50.992;6.798;2023-07-13T04:19:55;100808.91;;;17.71;72.34
2178;BME280;1095;50.992;6.798;2023-07-13T04:22:22;100806.63;;;17.68;72.53
2178;BME280;1095;50.992;6.798;2023-07-13T04:24:48;100798.63;;;17.54;72.79
2178;BME280;1095;50.992;6.798;2023-07-13T04:27:15;100804.06;;;17.05;74.10
2178;BME280;1095;50.992;6.798;2023-07-13T04:29:43;100814.81;;;17.04;74.91
2178;BME280;1095;50.992;6.798;2023-07-13T04:32:10;100809.09;;;17.69;73.19
2178;BME280;1095;50.992;6.798;2023-07-13T04:34:39;100815.75;;;18.26;71.47
2178;BME280;1095;50.992;6.798;2023-07-13T04:37:06;100811.41;;;17.85;71.59
2178;BME280;1095;50.992;6.798;2023-07-13T04:39:33;100821.72;;;17.74;72.75
2178;BME280;1095;50.992;6.798;2023-07-13T04:41:59;100820.41;;;17.56;73.61
2178;BME280;1095;50.992;6.798;2023-07-13T04:44:26;100815.41;;;17.34;74.24
2178;BME280;1095;50.992;6.798;2023-07-13T04:46:54;100814.97;;;17.23;75.10
2178;BME280;1095;50.992;6.798;2023-07-13T04:49:23;100819.63;;;17.63;74.58
2178;BME280;1095;50.992;6.798;2023-07-13T04:51:52;100827.13;;;18.07;73.58
2178;BME280;1095;50.992;6.798;2023-07-13T04:54:20;100820.25;;;18.26;72.55
2178;BME280;1095;50.992;6.798;2023-07-13T04:56:47;100825.53;;;18.26;72.25
2178;BME280;1095;50.992;6.798;2023-07-13T04:59:14;100832.03;;;18.16;73.06
2178;BME280;1095;50.992;6.798;2023-07-13T05:01:41;100825.13;;;18.29;72.83
2178;BME280;1095;50.992;6.798;2023-07-13T05:04:09;100824.31;;;18.28;72.63
2178;BME280;1095;50.992;6.798;2023-07-13T05:06:35;100825.94;;;18.49;72.44
2178;BME280;1095;50.992;6.798;2023-07-13T05:09:02;100827.19;;;18.60;72.28
2178;BME280;1095;50.992;6.798;2023-07-13T05:11:29;100829.03;;;18.39;72.58
2178;BME280;1095;50.992;6.798;2023-07-13T05:13:56;100842.66;;;18.30;73.22
2178;BME280;1095;50.992;6.798;2023-07-13T05:16:22;100850.84;;;18.41;73.41
2178;BME280;1095;50.992;6.798;2023-07-13T05:18:49;100837.81;;;18.66;72.81
2178;BME280;1095;50.992;6.798;2023-07-13T05:21:17;100840.84;;;19.03;72.26
2178;BME280;1095;50.992;6.798;2023-07-13T05:23:44;100833.69;;;19.23;71.37
2178;BME280;1095;50.992;6.798;2023-07-13T05:26:10;100838.09;;;19.55;70.72
2178;BME280;1095;50.992;6.798;2023-07-13T05:28:38;100826.28;;;19.96;69.38
2178;BME280;1095;50.992;6.798;2023-07-13T05:31:04;100831.56;;;20.66;67.42
2178;BME280;1095;50.992;6.798;2023-07-13T05:33:33;100843.19;;;21.14;66.53
2178;BME280;1095;50.992;6.798;2023-07-13T05:35:59;100845.59;;;21.89;63.96
2178;BME280;1095;50.992;6.798;2023-07-13T05:38:28;100850.00;;;22.55;62.41
2178;BME280;1095;50.992;6.798;2023-07-13T05:40:56;100851.31;;;23.23;61.03
2178;BME280;1095;50.992;6.798;2023-07-13T05:43:23;100862.69;;;23.41;60.04
2178;BME280;1095;50.992;6.798;2023-07-13T05:45:52;100861.03;;;22.70;61.16
2178;BME280;1095;50.992;6.798;2023-07-13T05:48:18;100868.16;;;21.57;63.75
2178;BME280;1095;50.992;6.798;2023-07-13T05:50:45;100866.28;;;20.96;66.04
2178;BME280;1095;50.992;6.798;2023-07-13T05:53:12;100869.50;;;20.16;67.78
2178;BME280;1095;50.992;6.798;2023-07-13T05:55:42;100858.94;;;20.35;68.14
2178;BME280;1095;50.992;6.798;2023-07-13T05:58:10;100866.69;;;20.43;67.80
2178;BME280;1095;50.992;6.798;2023-07-13T06:00:37;100863.91;;;19.86;69.07
2178;BME280;1095;50.992;6.798;2023-07-13T06:03:05;100868.25;;;19.74;70.29
2178;BME280;1095;50.992;6.798;2023-07-13T06:05:32;100866.47;;;19.42;70.51
2178;BME280;1095;50.992;6.798;2023-07-13T06:07:59;100871.63;;;19.30;71.41
2178;BME280;1095;50.992;6.798;2023-07-13T06:10:26;100865.03;;;19.66;70.95
2178;BME280;1095;50.992;6.798;2023-07-13T06:12:54;100868.75;;;19.51;71.34
2178;BME280;1095;50.992;6.798;2023-07-13T06:15:21;100868.88;;;20.14;70.34
2178;BME280;1095;50.992;6.798;2023-07-13T06:17:47;100864.22;;;20.98;68.24
2178;BME280;1095;50.992;6.798;2023-07-13T06:20:14;100856.91;;;21.73;65.60
2178;BME280;1095;50.992;6.798;2023-07-13T06:22:41;100872.44;;;20.71;66.98
2178;BME280;1095;50.992;6.798;2023-07-13T06:25:10;100887.94;;;20.74;68.22
2178;BME280;1095;50.992;6.798;2023-07-13T06:27:37;100886.91;;;20.44;69.08
2178;BME280;1095;50.992;6.798;2023-07-13T06:30:06;100891.44;;;19.99;70.01
2178;BME280;1095;50.992;6.798;2023-07-13T06:32:33;100895.66;;;19.48;72.00
2178;BME280;1095;50.992;6.798;2023-07-13T06:35:00;100889.13;;;19.58;71.66
2178;BME280;1095;50.992;6.798;2023-07-13T06:37:26;100888.03;;;20.30;70.31
2178;BME280;1095;50.992;6.798;2023-07-13T06:39:53;100882.53;;;21.85;66.67
2178;BME280;1095;50.992;6.798;2023-07-13T06:42:19;100882.03;;;22.25;64.58
2178;BME280;1095;50.992;6.798;2023-07-13T06:44:46;100890.31;;;21.87;65.62
2178;BME280;1095;50.992;6.798;2023-07-13T06:47:14;100890.03;;;21.22;66.77
2178;BME280;1095;50.992;6.798;2023-07-13T06:49:40;100899.22;;;20.70;68.58
2178;BME280;1095;50.992;6.798;2023-07-13T06:52:07;100895.88;;;20.49;69.33
2178;BME280;1095;50.992;6.798;2023-07-13T06:54:34;100895.59;;;20.64;69.19
2178;BME280;1095;50.992;6.798;2023-07-13T06:57:01;100899.91;;;20.59;69.14
2178;BME280;1095;50.992;6.798;2023-07-13T06:59:27;100900.31;;;21.12;68.58
2178;BME280;1095;50.992;6.798;2023-07-13T07:01:57;100903.34;;;21.40;66.86
2178;BME280;1095;50.992;6.798;2023-07-13T07:04:26;100898.63;;;20.93;67.56
2178;BME280;1095;50.992;6.798;2023-07-13T07:06:52;100907.94;;;21.51;66.85
2178;BME280;1095;50.992;6.798;2023-07-13T07:09:19;100904.53;;;21.44;66.21
2178;BME280;1095;50.992;6.798;2023-07-13T07:11:46;100900.16;;;21.50;66.58
2178;BME280;1095;50.992;6.798;2023-07-13T07:14:16;100909.47;;;21.41;66.76
2178;BME280;1095;50.992;6.798;2023-07-13T07:16:43;100908.13;;;21.32;67.26
2178;BME280;1095;50.992;6.798;2023-07-13T07:19:09;100917.13;;;20.81;68.19
2178;BME280;1095;50.992;6.798;2023-07-13T07:21:37;100918.63;;;20.77;69.12
2178;BME280;1095;50.992;6.798;2023-07-13T07:24:04;100929.13;;;20.27;70.22
2178;BME280;1095;50.992;6.798;2023-07-13T07:26:31;100932.53;;;20.34;70.37
2178;BME280;1095;50.992;6.798;2023-07-13T07:29:00;100926.56;;;20.45;70.43
2178;BME280;1095;50.992;6.798;2023-07-13T07:31:27;100920.75;;;19.79;71.69
2178;BME280;1095;50.992;6.798;2023-07-13T07:33:54;100925.97;;;19.92;71.86
2178;BME280;1095;50.992;6.798;2023-07-13T07:36:20;100928.25;;;19.88;72.19
2178;BME280;1095;50.992;6.798;2023-07-13T07:38:48;100924.94;;;20.00;72.37
2178;BME280;1095;50.992;6.798;2023-07-13T07:41:15;100934.22;;;20.29;72.22
2178;BME280;1095;50.992;6.798;2023-07-13T07:43:42;100933.22;;;20.23;71.94
2178;BME280;1095;50.992;6.798;2023-07-13T07:46:08;100932.91;;;20.00;72.42
2178;BME280;1095;50.992;6.798;2023-07-13T07:48:37;100928.03;;;20.35;72.01
2178;BME280;1095;50.992;6.798;2023-07-13T07:51:04;100936.84;;;20.73;71.28
2178;BME280;1095;50.992;6.798;2023-07-13T07:53:31;100925.88;;;20.63;71.30
2178;BME280;1095;50.992;6.798;2023-07-13T07:55:59;100937.13;;;20.90;71.20
2178;BME280;1095;50.992;6.798;2023-07-13T07:58:25;100927.16;;;20.54;70.89
2178;BME280;1095;50.992;6.798;2023-07-13T08:00:52;100929.41;;;20.82;70.54
2178;BME280;1095;50.992;6.798;2023-07-13T08:03:19;100932.97;;;20.69;70.76
2178;BME280;1095;50.992;6.798;2023-07-13T08:05:45;100932.47;;;20.54;71.55
2178;BME280;1095;50.992;6.798;2023-07-13T08:08:12;100925.22;;;20.93;70.19
2178;BME280;1095;50.992;6.798;2023-07-13T08:10:39;100931.75;;;20.97;69.64
2178;BME280;1095;50.992;6.798;2023-07-13T08:13:07;100931.81;;;21.15;69.88
2178;BME280;1095;50.992;6.798;2023-07-13T08:15:34;100926.16;;;21.30;69.27
2178;BME280;1095;50.992;6.798;2023-07-13T08:18:00;100929.19;;;21.08;69.89
2178;BME280;1095;50.992;6.798;2023-07-13T08:20:28;100926.63;;;21.27;69.00
2178;BME280;1095;50.992;6.798;2023-07-13T08:22:54;100925.81;;;21.26;69.27
2178;BME280;1095;50.992;6.798;2023-07-13T08:25:21;100922.56;;;21.42;68.75
2178;BME280;1095;50.992;6.798;2023-07-13T08:27:48;100921.38;;;21.38;68.72
2178;BME280;1095;50.992;6.798;2023-07-13T08:30:16;100925.53;;;21.89;68.40
2178;BME280;1095;50.992;6.798;2023-07-13T08:32:43;100932.84;;;21.57;68.50
2178;BME280;1095;50.992;6.798;2023-07-13T08:35:11;100917.97;;;21.86;67.37
2178;BME280;1095;50.992;6.798;2023-07-13T08:37:39;100929.19;;;22.25;67.19
2178;BME280;1095;50.992;6.798;2023-07-13T08:40:09;100928.03;;;22.50;65.83
2178;BME280;1095;50.992;6.798;2023-07-13T08:42:39;100935.84;;;22.34;66.37
2178;BME280;1095;50.992;6.798;2023-07-13T08:45:14;100918.56;;;21.88;67.10
2178;BME280;1095;50.992;6.798;2023-07-13T08:47:48;100920.94;;;21.78;66.74
2178;BME280;1095;50.992;6.798;2023-07-13T08:50:19;100924.41;;;21.97;66.67
2178;BME280;1095;50.992;6.798;2023-07-13T08:52:52;100914.56;;;21.97;66.63
2178;BME280;1095;50.992;6.798;2023-07-13T08:55:25;100917.56;;;21.71;66.46
2178;BME280;1095;50.992;6.798;2023-07-13T08:58:00;100917.69;;;21.76;66.97
2178;BME280;1095;50.992;6.798;2023-07-13T09:00:37;100911.88;;;21.67;67.06
2178;BME280;1095;50.992;6.798;2023-07-13T09:03:18;100925.69;;;22.12;66.23
2178;BME280;1095;50.992;6.798;2023-07-13T09:05:51;100917.56;;;22.37;66.45
2178;BME280;1095;50.992;6.798;2023-07-13T09:08:37;100926.41;;;22.91;64.99
2178;BME280;1095;50.992;6.798;2023-07-13T09:11:16;100925.06;;;23.12;64.36
2178;BME280;1095;50.992;6.798;2023-07-13T09:13:53;100928.13;;;22.86;64.66
2178;BME280;1095;50.992;6.798;2023-07-13T09:16:23;100922.59;;;22.57;65.13
2178;BME280;1095;50.992;6.798;2023-07-13T09:18:56;100923.16;;;22.47;65.21
2178;BME280;1095;50.992;6.798;2023-07-13T09:21:25;100932.31;;;22.51;64.52
2178;BME280;1095;50.992;6.798;2023-07-13T09:23:58;100922.25;;;22.54;64.08
2178;BME280;1095;50.992;6.798;2023-07-13T09:26:28;100930.38;;;23.35;62.55
2178;BME280;1095;50.992;6.798;2023-07-13T09:28:58;100922.09;;;22.78;63.83
2178;BME280;1095;50.992;6.798;2023-07-13T09:31:32;100926.38;;;22.79;63.74
2178;BME280;1095;50.992;6.798;2023-07-13T09:34:01;100925.25;;;23.22;62.58
2178;BME280;1095;50.992;6.798;2023-07-13T09:36:29;100929.69;;;23.28;61.97
2178;BME280;1095;50.992;6.798;2023-07-13T09:39:01;100923.88;;;23.31;62.36
2178;BME280;1095;50.992;6.798;2023-07-13T09:41:35;100926.53;;;23.66;61.99
2178;BME280;1095;50.992;6.798;2023-07-13T09:44:09;100914.94;;;24.58;59.73
2178;BME280;1095;50.992;6.798;2023-07-13T09:46:37;100920.97;;;24.81;60.04
2178;BME280;1095;50.992;6.798;2023-07-13T09:49:08;100917.56;;;24.12;59.76
2178;BME280;1095;50.992;6.798;2023-07-13T09:51:36;100922.97;;;24.01;59.64
2178;BME280;1095;50.992;6.798;2023-07-13T09:54:03;100931.84;;;24.30;59.26
2178;BME280;1095;50.992;6.798;2023-07-13T09:56:32;100935.84;;;23.40;61.26
2178;BME280;1095;50.992;6.798;2023-07-13T09:59:19;100929.78;;;23.68;61.46
2178;BME280;1095;50.992;6.798;2023-07-13T10:02:00;100935.69;;;23.82;60.69
2178;BME280;1095;50.992;6.798;2023-07-13T10:04:33;100928.13;;;22.86;62.17
2178;BME280;1095;50.992;6.798;2023-07-13T10:07:07;100926.44;;;22.61;62.76
2178;BME280;1095;50.992;6.798;2023-07-13T10:09:34;100935.34;;;22.55;63.83
2178;BME280;1095;50.992;6.798;2023-07-13T10:12:01;100928.50;;;23.24;62.37
2178;BME280;1095;50.992;6.798;2023-07-13T10:14:31;100921.47;;;23.53;61.16
2178;BME280;1095;50.992;6.798;2023-07-13T10:16:59;100927.81;;;23.17;60.74
2178;BME280;1095;50.992;6.798;2023-07-13T10:19:30;100934.09;;;23.34;60.82
2178;BME280;1095;50.992;6.798;2023-07-13T10:22:01;100924.41;;;24.20;59.61
2178;BME280;1095;50.992;6.798;2023-07-13T10:24:31;100925.34;;;24.88;57.47
2178;BME280;1095;50.992;6.798;2023-07-13T10:27:01;100916.59;;;24.92;56.62
2178;BME280;1095;50.992;6.798;2023-07-13T10:29:34;100926.16;;;25.60;56.58
2178;BME280;1095;50.992;6.798;2023-07-13T10:32:02;100924.56;;;24.42;57.27
2178;BME280;1095;50.992;6.798;2023-07-13T10:34:29;100928.59;;;24.16;58.16
2178;BME280;1095;50.992;6.798;2023-07-13T10:36:56;100938.59;;;23.69;59.09
2178;BME280;1095;50.992;6.798;2023-07-13T10:39:27;100934.41;;;23.73;59.66
2178;BME280;1095;50.992;6.798;2023-07-13T10:41:57;100939.53;;;23.28;60.59
2178;BME280;1095;50.992;6.798;2023-07-13T10:44:29;100925.97;;;23.53;59.68
2178;BME280;1095;50.992;6.798;2023-07-13T10:46:59;100931.75;;;23.49;59.62
2178;BME280;1095;50.992;6.798;2023-07-13T10:49:27;100932.97;;;23.54;59.77
2178;BME280;1095;50.992;6.798;2023-07-13T10:51:55;100934.47;;;23.61;59.72
2178;BME280;1095;50.992;6.798;2023-07-13T10:54:28;100943.81;;;23.87;59.34
2178;BME280;1095;50.992;6.798;2023-07-13T10:57:16;100930.75;;;24.02;59.24
2178;BME280;1095;50.992;6.798;2023-07-13T10:59:47;100927.66;;;23.82;58.78
2178;BME280;1095;50.992;6.798;2023-07-13T11:04:53;100932.66;;;24.19;58.37
2178;BME280;1095;50.992;6.798;2023-07-13T11:07:22;100940.47;;;24.48;58.05
2178;BME280;1095;50.992;6.798;2023-07-13T11:09:52;100934.97;;;24.55;57.17
2178;BME280;1095;50.992;6.798;2023-07-13T11:15:11;100942.53;;;23.78;57.69
2178;BME280;1095;50.992;6.798;2023-07-13T11:17:49;100953.72;;;23.52;58.90
2178;BME280;1095;50.992;6.798;2023-07-13T11:20:31;100949.03;;;23.82;59.03
2178;BME280;1095;50.992;6.798;2023-07-13T11:23:28;100939.56;;;23.63;58.92
2178;BME280;1095;50.992;6.798;2023-07-13T11:25:56;100943.84;;;23.40;59.64
2178;BME280;1095;50.992;6.798;2023-07-13T11:28:27;100938.84;;;22.97;60.16
2178;BME280;1095;50.992;6.798;2023-07-13T11:31:12;100932.44;;;22.87;61.15
2178;BME280;1095;50.992;6.798;2023-07-13T11:33:52;100935.81;;;23.17;60.62
2178;BME280;1095;50.992;6.798;2023-07-13T11:36:21;100933.50;;;23.67;59.47
2178;BME280;1095;50.992;6.798;2023-07-13T11:38:58;100925.50;;;23.21;60.02
2178;BME280;1095;50.992;6.798;2023-07-13T11:41:29;100943.19;;;23.57;60.01
2178;BME280;1095;50.992;6.798;2023-07-13T11:44:05;100932.34;;;23.52;60.15
2178;BME280;1095;50.992;6.798;2023-07-13T11:46:32;100926.88;;;23.70;59.63
2178;BME280;1095;50.992;6.798;2023-07-13T11:48:59;100924.38;;;24.32;58.70
2178;BME280;1095;50.992;6.798;2023-07-13T11:51:29;100916.97;;;24.51;58.05
2178;BME280;1095;50.992;6.798;2023-07-13T11:54:01;100918.50;;;24.63;57.28
2178;BME280;1095;50.992;6.798;2023-07-13T11:56:31;100909.84;;;24.56;57.78
2178;BME280;1095;50.992;6.798;2023-07-13T11:59:05;100902.38;;;24.58;57.04
2178;BME280;1095;50.992;6.798;2023-07-13T12:01:32;100928.50;;;25.35;56.48
2178;BME280;1095;50.992;6.798;2023-07-13T12:04:01;100914.13;;;25.63;54.39
2178;BME280;1095;50.992;6.798;2023-07-13T12:06:31;100906.03;;;25.58;54.62
2178;BME280;1095;50.992;6.798;2023-07-13T12:08:59;100910.84;;;24.84;55.04
2178;BME280;1095;50.992;6.798;2023-07-13T12:11:27;100905.97;;;24.80;55.45
2178;BME280;1095;50.992;6.798;2023-07-13T12:13:56;100904.41;;;24.23;55.50
2178;BME280;1095;50.992;6.798;2023-07-13T12:16:26;100919.72;;;24.39;56.59
2178;BME280;1095;50.992;6.798;2023-07-13T12:18:54;100893.88;;;24.78;54.98
2178;BME280;1095;50.992;6.798;2023-07-13T12:21:27;100892.81;;;25.12;53.64
2178;BME280;1095;50.992;6.798;2023-07-13T12:23:56;100899.13;;;25.23;53.54
2178;BME280;1095;50.992;6.798;2023-07-13T12:26:23;100892.16;;;25.22;53.72
2178;BME280;1095;50.992;6.798;2023-07-13T12:28:52;100898.53;;;25.60;53.33
2178;BME280;1095;50.992;6.798;2023-07-13T12:31:30;100896.31;;;25.13;53.47
2178;BME280;1095;50.992;6.798;2023-07-13T12:33:59;100907.59;;;25.15;54.36
2178;BME280;1095;50.992;6.798;2023-07-13T12:36:26;100912.91;;;24.65;55.35
2178;BME280;1095;50.992;6.798;2023-07-13T12:38:54;100903.00;;;24.20;55.84
2178;BME280;1095;50.992;6.798;2023-07-13T12:41:22;100901.25;;;23.97;55.29
2178;BME280;1095;50.992;6.798;2023-07-13T12:43:49;100893.28;;;24.59;53.28
2178;BME280;1095;50.992;6.798;2023-07-13T12:46:18;100897.97;;;24.35;54.03
2178;BME280;1095;50.992;6.798;2023-07-13T12:48:51;100903.38;;;24.86;53.74
2178;BME280;1095;50.992;6.798;2023-07-13T12:51:22;100906.56;;;24.99;53.25
2178;BME280;1095;50.992;6.798;2023-07-13T12:53:51;100897.84;;;24.92;53.36
2178;BME280;1095;50.992;6.798;2023-07-13T12:56:23;100904.69;;;25.00;53.30
2178;BME280;1095;50.992;6.798;2023-07-13T12:58:57;100904.97;;;25.20;53.64
2178;BME280;1095;50.992;6.798;2023-07-13T13:01:26;100901.47;;;24.98;53.43
2178;BME280;1095;50.992;6.798;2023-07-13T13:04:00;100879.19;;;25.14;52.59
2178;BME280;1095;50.992;6.798;2023-07-13T13:06:29;100896.44;;;25.01;53.65
2178;BME280;1095;50.992;6.798;2023-07-13T13:08:58;100907.75;;;25.25;54.38
2178;BME280;1095;50.992;6.798;2023-07-13T13:11:26;100890.84;;;25.25;53.34
2178;BME280;1095;50.992;6.798;2023-07-13T13:13:54;100894.56;;;25.02;53.58
2178;BME280;1095;50.992;6.798;2023-07-13T13:16:24;100893.16;;;24.83;53.46
2178;BME280;1095;50.992;6.798;2023-07-13T13:18:56;100877.22;;;25.26;52.24
2178;BME280;1095;50.992;6.798;2023-07-13T13:21:24;100886.00;;;25.05;52.04
2178;BME280;1095;50.992;6.798;2023-07-13T13:23:51;100891.69;;;25.08;52.38